Wynau, Switzerland

5:09 PM CEST on October 02, 2014 (GMT +0200)
Balsthal (Edi) | Change Station
CLOSE
Current Station
Personal Weather Station
Location: Balsthal, SOLOTHURN
Elevation: 1817 ft
Nearby Weather Stations

Elev 1817 ft 47.32 °N, 7.71 °E | Updated 13 minutes ago

Partly Cloudy
Partly Cloudy
72.3 °F
Feels Like 77 °F
N
0.2
Wind Variable Wind from SE
Gusts 2.5 mph

Today
High -- | Low -- °F
--% Chance of Precip.
Yesterday
High -- | Low -- °F
Precip. -- in
7:28 AM 7:06 PM
First Quarter, 59% visible
Pressure 30.30 in
Visibility 6.2 miles
Clouds Few 4000 ft
Heat Index 77 °F
Dew Point 53 °F
Humidity 51%
Rainfall 0.00 in
Snow Depth Not available.
UV 1.0 out of 12
Pollen Not available.
Air Quality Not available.
Flu Activity Not available.
METAR LSZG 021450Z 10011KT 060V130 9999 FEW040 21/12 Q1026 NOSIG

More Conditions Fewer Conditions

Pressure 30.30 in
Visibility 6.2 miles
Clouds Few 4000 ft
Heat Index 77 °F
Dew Point 53 °F
Humidity 51%
Rainfall 0.00 in
Snow Depth Not available.
UV 1.0 out of 12
Pollen Not available.
Air Quality Not available.
Flu Activity Not available.
METAR LSZG 021450Z 10011KT 060V130 9999 FEW040 21/12 Q1026 NOSIG

More Conditions Fewer Conditions

10-Day Weather Forecast

Almanac

Astronomy

Oct. 02, 2014 Rise Set
Actual Time 7:28 AM CEST 7:06 PM CEST
Civil Twilight 6:58 AM CEST 7:37 PM CEST
Nautical Twilight 6:22 AM CEST 8:12 PM CEST
Astronomical Twilight 5:46 AM CEST 8:48 PM CEST
Moon 3:21 PM CEST 12:06 AM CEST
Length of Visible Light 12h 39m
Length of Day
11h 38m
Tomorrow will be 3m 20s shorter.
First Quarter, 59% of the Moon is Illuminated
Today
First Quarter
Oct 8
Full
Oct 15
Last Quarter
Oct 23
New
Oct 30
First Quarter

Today's Extremes

Country Highs Country Lows

Community

WunderPhotos

Upload Photos

1,758,255 photos uploaded!

WunderBlogs® & News

By Dr. Jeff Masters
Director of Meteorology, Weather Underground
By Kari Strenfel
Meteorologist, Weather Underground
By Christopher C. Burt
Weather Historian, Weather Underground
October 2, 2014
October 2, 2014
October 2, 2014

Nearby

Snow Depth

Not available.

Earthquake Activity

City Distance Mag. Time & Date
No recent earthquake activity has been reported nearby.
Minimum magnitude displayed is 2.5.

Coastal Water Temperatures

Place Temperature
No Stations Reporting

Nearby Weather Stations